Time;durP1;ratioP1;P1;durP2;ratioP2;P2;SDS_P1;SDS_P2;PMS_P1;PMS_P2;Temp;Humidity;BMP_temperature;BMP_pressure;BME280_temperature;BME280_humidity;BME280_pressure;Samples;Min_cycle;Max_cycle;Signal;HPM_P1;HPM_P2
2021/12/16 00:08:35;;;;;;;;;32.00;29.00;;;;;11.22;66.58;103089.59;4989266;28;46387;-67
2021/12/16 00:30:06;;;;;;;;;30.00;28.00;;;;;11.24;65.99;103069.91;4996755;28;45889;-68
2021/12/16 00:34:57;;;;;;;;;28.67;27.00;;;;;11.38;65.37;103098.38;4995032;28;45305;-67
2021/12/16 00:37:25;;;;;;;;;31.67;27.33;;;;;11.22;66.12;103066.50;4980372;28;45480;-67
2021/12/16 00:39:50;;;;;;;;;31.33;28.33;;;;;11.35;65.64;103081.72;4995388;28;45591;-69
2021/12/16 00:47:48;;;;;;;;;32.33;30.67;;;;;11.41;65.22;103070.69;4997025;28;45411;-66
2021/12/16 00:50:22;;;;;;;;;33.67;29.00;;;;;11.48;65.22;103082.72;4996689;28;46474;-65
2021/12/16 00:55:47;;;;;;;;;43.33;35.33;;;;;11.50;65.49;103083.47;4994228;28;45555;-68
2021/12/16 00:58:16;;;;;;;;;37.00;31.33;;;;;11.51;65.77;103082.50;4996207;28;45521;-67
2021/12/16 01:00:50;;;;;;;;;35.67;32.67;;;;;11.52;65.23;103086.91;4996044;28;45801;-66
2021/12/16 01:06:20;;;;;;;;;28.67;27.00;;;;;11.02;64.96;102984.31;4992648;28;45445;-67
2021/12/16 01:34:24;;;;;;;;;35.67;33.00;;;;;11.43;65.67;103080.31;4995931;28;45843;-66
2021/12/16 01:37:24;;;;;;;;;37.33;32.00;;;;;11.41;65.54;103073.34;4993768;28;46249;-67
2021/12/16 01:42:37;;;;;;;;;40.67;33.67;;;;;11.53;65.21;103083.28;4976998;28;45468;-68
2021/12/16 01:50:37;;;;;;;;;33.33;30.33;;;;;11.42;65.43;103075.09;4995938;28;45527;-67
2021/12/16 01:53:18;;;;;;;;;32.00;30.33;;;;;11.58;65.20;103097.16;4996069;28;45474;-67
2021/12/16 01:55:58;;;;;;;;;30.00;28.00;;;;;11.59;65.36;103093.56;4997248;28;47454;-68
2021/12/16 01:58:27;;;;;;;;;29.00;27.33;;;;;11.56;65.03;103086.59;4998976;28;45503;-68
2021/12/16 02:01:11;;;;;;;;;33.33;31.00;;;;;11.62;65.03;103092.53;4999420;28;45758;-67
2021/12/16 02:03:46;;;;;;;;;30.67;28.67;;;;;11.55;65.10;103078.72;4999414;28;45431;-68
2021/12/16 02:08:49;;;;;;;;;36.00;29.00;;;;;11.58;64.99;103105.16;4998982;28;45314;-67
2021/12/16 02:36:28;;;;;;;;;36.33;31.33;;;;;11.68;64.71;103094.81;4997152;28;45530;-67
2021/12/16 02:39:15;;;;;;;;;49.67;42.00;;;;;11.54;65.29;103069.00;4998168;28;45617;-67
2021/12/16 02:41:44;;;;;;;;;38.67;32.67;;;;;11.56;64.28;103080.41;4998466;28;45279;-67
2021/12/16 02:49:44;;;;;;;;;31.33;28.33;;;;;11.23;65.09;103093.97;4998163;28;45911;-66
2021/12/16 02:52:10;;;;;;;;;42.33;34.67;;;;;11.33;65.15;103099.59;4998564;28;45339;-69
2021/12/16 02:54:36;;;;;;;;;33.67;29.33;;;;;11.30;64.89;103095.31;4998235;28;45255;-68
2021/12/16 02:57:02;;;;;;;;;40.00;33.67;;;;;11.14;65.04;103095.34;4998615;28;45225;-68
2021/12/16 02:59:30;;;;;;;;;27.67;26.00;;;;;11.09;65.13;103081.47;4996906;28;49120;-67
2021/12/16 03:02:05;;;;;;;;;32.67;30.67;;;;;11.30;65.15;103091.81;4998247;28;45440;-66
2021/12/16 03:04:31;;;;;;;;;38.33;34.00;;;;;11.26;65.37;103083.13;4998062;28;45259;-67
2021/12/16 03:06:58;;;;;;;;;37.67;30.67;;;;;11.30;65.16;103097.13;4982081;28;45520;-68
2021/12/16 03:14:47;;;;;;;;;37.67;33.33;;;;;11.30;65.39;103094.47;4988403;28;45506;-68
2021/12/16 03:17:26;;;;;;;;;36.33;31.00;;;;;11.31;65.49;103101.50;4996893;28;45591;-68
2021/12/16 03:20:03;;;;;;;;;35.00;32.33;;;;;11.41;65.38;103102.66;4997956;28;46871;-66
2021/12/16 03:25:22;;;;;;;;;44.33;34.33;;;;;11.25;65.55;103095.59;4998020;28;45484;-65
2021/12/16 03:30:43;;;;;;;;;39.67;33.00;;;;;10.77;66.00;103016.81;4997467;28;46265;-67
2021/12/16 03:35:39;;;;;;;;;32.00;25.67;;;;;11.14;65.85;103092.69;4993669;28;45595;-67
2021/12/16 03:38:08;;;;;;;;;34.67;32.33;;;;;11.24;66.46;103101.00;4977165;28;45866;-66
2021/12/16 03:40:36;;;;;;;;;35.00;29.67;;;;;11.34;65.25;103103.97;4977786;28;46557;-66
2021/12/16 03:43:11;;;;;;;;;33.00;30.00;;;;;11.36;65.49;103110.91;4985779;28;45231;-67
2021/12/16 03:48:38;;;;;;;;;23.33;21.00;;;;;11.33;64.69;103099.59;4997907;28;45236;-67
2021/12/16 03:51:12;;;;;;;;;30.00;28.00;;;;;11.16;65.20;103074.81;4996052;28;48339;-66
2021/12/16 03:53:41;;;;;;;;;29.00;25.00;;;;;11.23;64.45;103089.50;4997153;28;45450;-66
2021/12/16 03:56:07;;;;;;;;;22.33;20.00;;;;;11.37;64.63;103101.97;4997534;28;45482;-67
2021/12/16 03:58:33;;;;;;;;;26.00;23.67;;;;;11.43;64.74;103103.44;4997663;28;45481;-68
2021/12/16 04:01:04;;;;;;;;;32.67;29.33;;;;;11.38;65.40;103093.03;4996063;28;48568;-68
2021/12/16 04:03:30;;;;;;;;;28.67;25.67;;;;;11.39;65.82;103104.56;4997055;28;45223;-66
2021/12/16 04:05:55;;;;;;;;;33.67;29.33;;;;;11.43;65.87;103103.44;4995759;28;45359;-68
2021/12/16 04:08:21;;;;;;;;;36.33;30.00;;;;;11.45;65.67;103093.56;4997549;28;45262;-69
2021/12/16 04:11:00;;;;;;;;;38.67;33.00;;;;;11.49;65.96;103103.91;4996861;28;46887;-67
2021/12/16 04:13:25;;;;;;;;;34.67;29.33;;;;;11.52;65.62;103095.75;4997212;28;45439;-67
2021/12/16 04:15:51;;;;;;;;;36.00;31.33;;;;;11.54;65.14;103107.16;4997011;28;45582;-68
2021/12/16 04:18:17;;;;;;;;;37.33;31.67;;;;;11.52;64.88;103110.88;4996336;28;45547;-69
2021/12/16 04:20:43;;;;;;;;;34.67;31.00;;;;;11.40;65.62;103090.28;4995189;28;46893;-66
2021/12/16 04:23:11;;;;;;;;;32.00;30.33;;;;;11.43;65.73;103100.78;4996026;28;46462;-68
2021/12/16 04:25:40;;;;;;;;;32.00;28.33;;;;;11.48;65.35;103104.88;4997288;28;45290;-68
2021/12/16 04:28:12;;;;;;;;;34.00;30.67;;;;;11.53;65.33;103109.91;4997313;28;45360;-66
2021/12/16 04:30:37;;;;;;;;;30.00;27.00;;;;;11.51;65.09;103109.16;4996584;28;46601;-67
2021/12/16 04:33:03;;;;;;;;;36.33;30.33;;;;;11.42;65.45;103099.91;4995087;28;45374;-68
2021/12/16 04:35:29;;;;;;;;;31.33;28.00;;;;;11.43;65.52;103098.13;4997110;28;45416;-68
2021/12/16 04:37:55;;;;;;;;;36.33;30.00;;;;;11.55;65.77;103116.00;4997439;28;45366;-67
2021/12/16 04:40:21;;;;;;;;;32.00;29.67;;;;;11.53;64.93;103123.25;4996835;28;45385;-69
2021/12/16 04:42:48;;;;;;;;;33.67;31.33;;;;;11.38;65.47;103105.50;4996620;28;45266;-66
2021/12/16 04:45:17;;;;;;;;;35.33;31.67;;;;;11.51;65.58;103122.47;4996648;28;45313;-68
2021/12/16 04:47:43;;;;;;;;;35.00;31.67;;;;;11.50;65.55;103124.28;4997060;28;45366;-67
2021/12/16 04:50:10;;;;;;;;;31.67;30.33;;;;;11.28;65.63;103070.59;4996614;28;45757;-67
2021/12/16 04:52:35;;;;;;;;;38.67;33.33;;;;;11.19;65.43;103069.31;4996180;28;45401;-68
2021/12/16 04:55:04;;;;;;;;;40.33;36.00;;;;;11.56;66.36;103126.56;4995076;28;45685;-67
2021/12/16 04:57:29;;;;;;;;;31.67;30.33;;;;;11.57;65.06;103127.44;4996945;28;45464;-66
2021/12/16 04:59:55;;;;;;;;;33.67;29.67;;;;;11.62;65.45;103130.69;4996521;28;46660;-67
2021/12/16 05:02:23;;;;;;;;;37.33;33.00;;;;;11.69;65.73;103125.84;4995235;28;45227;-67
2021/12/16 05:04:49;;;;;;;;;38.00;30.67;;;;;11.71;64.88;103130.13;4995282;28;45361;-66
2021/12/16 05:07:15;;;;;;;;;32.67;30.67;;;;;11.71;65.27;103127.47;4995964;28;45410;-67
2021/12/16 05:12:17;;;;;;;;;36.00;30.33;;;;;11.78;65.03;103123.50;4996276;28;45412;-68
2021/12/16 05:14:44;;;;;;;;;36.33;30.67;;;;;11.85;64.84;103137.31;4996114;28;45534;-66
2021/12/16 05:17:23;;;;;;;;;39.00;34.67;;;;;11.87;64.43;103133.59;4995144;28;45288;-67
2021/12/16 05:19:51;;;;;;;;;35.33;31.00;;;;;11.87;65.04;103122.94;4996149;28;46577;-67
2021/12/16 05:25:02;;;;;;;;;31.67;28.67;;;;;11.95;64.19;103130.47;4996238;28;45338;-65
2021/12/16 05:27:27;;;;;;;;;29.33;28.67;;;;;11.89;64.36;103117.50;4995111;28;45337;-67
2021/12/16 05:29:53;;;;;;;;;34.33;31.00;;;;;11.94;64.40;103126.06;4998242;28;46698;-68
2021/12/16 05:32:18;;;;;;;;;34.33;30.67;;;;;12.02;64.11;103141.63;4978258;28;46371;-67
2021/12/16 05:34:43;;;;;;;;;33.00;30.67;;;;;11.49;64.20;103047.13;4998586;28;45380;-66
2021/12/16 05:37:09;;;;;;;;;35.00;30.33;;;;;11.85;63.98;103108.00;4999879;28;45384;-66
2021/12/16 05:39:35;;;;;;;;;23.67;22.67;;;;;12.02;63.55;103142.47;4999546;28;45577;-66
2021/12/16 05:42:00;;;;;;;;;23.00;20.33;;;;;11.82;64.26;103125.03;4999323;28;45489;-66
2021/12/16 05:44:26;;;;;;;;;32.00;29.00;;;;;11.91;63.85;103133.41;4999128;28;45332;-66
2021/12/16 05:46:52;;;;;;;;;30.00;27.33;;;;;11.80;63.36;103134.06;4999585;28;45597;-67
2021/12/16 05:49:18;;;;;;;;;27.67;26.00;;;;;11.81;63.97;103144.66;4999341;28;46471;-67
2021/12/16 05:51:49;;;;;;;;;30.00;30.00;;;;;11.75;64.21;103144.97;4997717;28;46036;-66
2021/12/16 05:54:14;;;;;;;;;29.67;26.67;;;;;11.70;64.59;103144.41;4998115;28;45299;-66
2021/12/16 05:56:40;;;;;;;;;33.00;30.33;;;;;11.81;64.57;103155.31;4992269;28;45286;-66
2021/12/16 05:59:08;;;;;;;;;37.00;31.33;;;;;11.86;64.95;103158.53;4979202;28;45670;-65
2021/12/16 06:01:37;;;;;;;;;26.67;25.00;;;;;11.84;64.58;103154.25;4979278;28;45334;-68
2021/12/16 06:04:03;;;;;;;;;40.67;36.00;;;;;11.70;65.10;103147.06;4983663;28;45420;-68
2021/12/16 06:06:29;;;;;;;;;37.67;34.33;;;;;11.70;65.45;103159.53;4998342;28;45224;-67
2021/12/16 06:08:56;;;;;;;;;31.33;29.67;;;;;11.60;65.75;103159.22;4996589;28;48293;-67
2021/12/16 06:11:27;;;;;;;;;36.33;33.00;;;;;11.65;65.98;103167.81;4998913;28;45471;-67
2021/12/16 06:27:37;;;;;;;;;46.00;35.67;;;;;11.55;66.37;103171.94;4981116;28;45385;-66
2021/12/16 06:30:07;;;;;;;;;40.00;33.33;;;;;11.33;66.07;103131.56;4977360;28;46550;-68
2021/12/16 06:32:33;;;;;;;;;41.67;35.67;;;;;11.52;66.23;103173.00;4984165;28;45623;-67
2021/12/16 06:34:59;;;;;;;;;31.00;27.67;;;;;11.37;66.83;103165.03;4998020;28;45321;-68
2021/12/16 06:37:25;;;;;;;;;34.33;31.00;;;;;11.15;66.74;103138.81;4998616;28;45338;-68
2021/12/16 06:39:51;;;;;;;;;38.00;33.33;;;;;11.23;66.61;103137.44;4996964;28;45971;-67
2021/12/16 06:42:17;;;;;;;;;42.33;36.00;;;;;11.35;66.76;103161.63;4995745;28;45412;-68
2021/12/16 06:44:49;;;;;;;;;31.00;31.00;;;;;11.30;67.04;103153.91;4998223;28;45336;-67
2021/12/16 06:47:20;;;;;;;;;43.33;35.67;;;;;11.24;67.12;103154.28;4997001;28;45930;-67
2021/12/16 06:49:48;;;;;;;;;36.00;33.33;;;;;11.30;66.81;103174.34;4997940;28;46652;-67
2021/12/16 06:52:17;;;;;;;;;37.67;33.33;;;;;11.40;67.32;103178.19;4997710;28;45447;-68
2021/12/16 06:57:37;;;;;;;;;38.67;34.67;;;;;11.48;66.93;103183.94;5006762;28;45488;-67
2021/12/16 07:00:19;;;;;;;;;34.67;31.00;;;;;11.49;66.61;103186.50;4997676;28;45674;-69
2021/12/16 07:02:59;;;;;;;;;38.67;34.67;;;;;11.48;67.00;103184.78;4997677;28;45282;-67
2021/12/16 07:05:29;;;;;;;;;40.00;34.67;;;;;11.50;67.11;103187.38;4996336;28;45602;-68
2021/12/16 07:07:54;;;;;;;;;39.33;34.00;;;;;10.35;66.96;102998.88;4996888;28;45313;-67
2021/12/16 07:10:21;;;;;;;;;40.33;33.33;;;;;11.50;67.25;103188.22;4995200;28;47990;-67
2021/12/16 07:12:48;;;;;;;;;32.67;31.33;;;;;11.48;67.39;103186.59;4997204;28;45340;-66
2021/12/16 07:15:21;;;;;;;;;34.67;33.00;;;;;11.49;67.13;103180.31;4996125;28;45469;-68
2021/12/16 07:17:47;;;;;;;;;39.00;34.00;;;;;11.34;67.07;103159.91;4997242;28;45461;-67
2021/12/16 07:20:15;;;;;;;;;36.33;31.00;;;;;11.58;66.86;103195.75;4995362;28;46723;-72
2021/12/16 07:22:41;;;;;;;;;32.00;30.33;;;;;11.48;66.85;103178.59;4995733;28;45444;-67
2021/12/16 07:25:07;;;;;;;;;36.67;33.00;;;;;11.59;66.90;103178.81;4994870;28;45597;-67
2021/12/16 07:27:35;;;;;;;;;43.67;31.33;;;;;11.59;66.40;103176.16;4984767;28;45491;-67
2021/12/16 07:30:04;;;;;;;;;31.33;30.33;;;;;11.58;66.45;103169.09;4979661;28;45573;-69
2021/12/16 07:32:30;;;;;;;;;37.67;33.67;;;;;11.57;66.76;103188.69;4980347;28;45600;-68
2021/12/16 07:34:55;;;;;;;;;37.00;31.33;;;;;11.63;67.01;103195.50;4977809;28;45227;-68
2021/12/16 07:37:21;;;;;;;;;32.33;30.33;;;;;11.63;66.64;103195.50;4978204;28;45557;-67
2021/12/16 07:39:49;;;;;;;;;34.67;32.33;;;;;11.67;66.35;103199.69;4978224;28;45765;-66
2021/12/16 07:42:23;;;;;;;;;35.00;31.00;;;;;11.47;66.60;103163.56;4991395;28;45373;-68
2021/12/16 07:44:48;;;;;;;;;40.67;31.67;;;;;11.35;66.85;103145.63;4995230;28;45453;-67
2021/12/16 07:47:14;;;;;;;;;32.67;31.00;;;;;11.13;67.01;103120.28;4997380;28;45244;-68
2021/12/16 07:49:42;;;;;;;;;29.67;29.67;;;;;11.68;66.30;103194.25;4991165;28;46294;-68
2021/12/16 07:52:11;;;;;;;;;35.67;32.33;;;;;11.61;66.65;103181.38;4987252;28;45531;-66
2021/12/16 07:54:37;;;;;;;;;37.00;33.67;;;;;11.58;66.72;103172.63;4995284;28;45541;-68
2021/12/16 07:57:04;;;;;;;;;37.00;32.67;;;;;11.78;66.35;103208.78;4996860;28;45324;-67
2021/12/16 07:59:32;;;;;;;;;38.33;32.67;;;;;11.70;66.45;103179.03;4996347;28;45445;-66
2021/12/16 08:01:59;;;;;;;;;11.00;10.00;;;;;11.81;66.31;103211.28;4995933;28;45210;-66
2021/12/16 08:04:30;;;;;;;;;18.00;14.67;;;;;11.54;66.50;103162.25;4994993;28;45401;-69
2021/12/16 08:07:03;;;;;;;;;43.67;36.67;;;;;11.76;66.57;103205.31;4996556;28;45594;-69
2021/12/16 08:09:29;;;;;;;;;42.33;35.00;;;;;11.65;66.31;103197.13;4992247;28;47774;-67
2021/12/16 08:11:55;;;;;;;;;33.33;31.00;;;;;11.56;66.87;103194.97;4996303;28;45529;-69
2021/12/16 08:14:20;;;;;;;;;36.67;32.33;;;;;11.66;66.81;103212.16;4995181;28;45426;-68
2021/12/16 08:16:46;;;;;;;;;45.00;37.00;;;;;11.75;66.51;103219.59;4996841;28;45394;-68
2021/12/16 08:19:13;;;;;;;;;39.33;32.67;;;;;11.75;66.60;103219.59;4996038;28;45458;-68
2021/12/16 08:21:39;;;;;;;;;35.00;30.67;;;;;11.74;66.64;103212.53;4994460;28;45640;-67
2021/12/16 08:24:09;;;;;;;;;38.00;35.00;;;;;11.81;66.68;103229.06;4994929;28;45469;-66
2021/12/16 08:26:36;;;;;;;;;39.67;33.33;;;;;11.75;66.21;103203.59;4994674;28;45489;-67
2021/12/16 08:29:04;;;;;;;;;44.33;33.33;;;;;11.80;66.00;103214.00;4996183;28;46056;-67
2021/12/16 08:31:30;;;;;;;;;41.00;35.33;;;;;11.94;66.16;103219.38;4995621;28;45333;-68
2021/12/16 08:33:57;;;;;;;;;32.67;31.00;;;;;11.95;65.94;103228.25;4996530;28;45402;-68
2021/12/16 08:36:32;;;;;;;;;39.67;35.00;;;;;11.98;66.31;103230.72;4996507;28;45607;-69
2021/12/16 08:38:59;;;;;;;;;40.00;33.33;;;;;12.06;65.84;103233.78;4996141;28;45303;-66
2021/12/16 08:41:31;;;;;;;;;31.33;30.33;;;;;12.05;65.89;103232.94;4994452;28;45394;-68
2021/12/16 08:44:00;;;;;;;;;37.33;32.67;;;;;12.03;65.22;103233.97;4996387;28;45187;-68
2021/12/16 08:46:30;;;;;;;;;42.33;33.33;;;;;11.43;65.12;103138.94;4995820;28;45365;-69
2021/12/16 08:48:56;;;;;;;;;37.67;32.00;;;;;12.11;65.17;103239.69;4988082;28;45283;-69
2021/12/16 08:51:26;;;;;;;;;31.67;28.00;;;;;11.65;65.28;103169.63;4994836;28;45478;-67
2021/12/16 08:53:53;;;;;;;;;31.00;27.67;;;;;12.04;65.28;103233.03;4995709;28;45564;-67
2021/12/16 08:56:18;;;;;;;;;32.00;30.00;;;;;11.95;64.90;103220.25;4995737;28;45549;-65
2021/12/16 08:58:45;;;;;;;;;31.00;29.67;;;;;11.85;64.58;103198.63;4995595;28;46778;-68
2021/12/16 09:01:14;;;;;;;;;26.67;26.33;;;;;11.31;63.79;103118.34;4995895;28;45314;-67
2021/12/16 09:03:40;;;;;;;;;36.00;32.00;;;;;12.03;64.70;103232.19;4996206;28;45392;-67
2021/12/16 09:06:06;;;;;;;;;30.00;27.67;;;;;12.00;63.88;103226.16;4999603;28;45435;-67
2021/12/16 09:08:31;;;;;;;;;32.00;30.00;;;;;12.13;63.97;103245.78;4998816;28;46406;-67
2021/12/16 09:10:57;;;;;;;;;42.67;37.67;;;;;11.95;64.57;103212.25;5013967;28;46172;-68
2021/12/16 09:13:23;;;;;;;;;22.00;22.00;;;;;12.12;62.71;103236.09;4999232;28;45301;-66
2021/12/16 09:15:52;;;;;;;;;22.33;21.00;;;;;12.21;62.82;103256.84;4999321;28;45530;-67
2021/12/16 09:18:24;;;;;;;;;27.33;25.33;;;;;12.10;62.99;103252.19;4997189;28;47929;-69
2021/12/16 09:20:50;;;;;;;;;29.00;26.67;;;;;11.88;62.75;103196.63;4997774;28;45406;-66
2021/12/16 09:23:16;;;;;;;;;23.67;22.67;;;;;12.16;61.77;103248.28;4997772;28;45525;-66
2021/12/16 09:25:44;;;;;;;;;21.33;21.33;;;;;12.17;62.19;103255.31;4999166;28;45510;-67
2021/12/16 09:28:10;;;;;;;;;23.67;23.67;;;;;12.17;62.27;103264.19;4998162;28;46427;-66
2021/12/16 09:30:37;;;;;;;;;28.00;24.33;;;;;12.12;62.19;103260.09;4997008;28;45302;-66
2021/12/16 09:33:07;;;;;;;;;24.00;22.00;;;;;12.12;62.50;103255.59;4997452;28;45518;-68
2021/12/16 09:35:37;;;;;;;;;27.67;21.33;;;;;12.21;62.30;103261.31;4999003;28;45485;-67
2021/12/16 09:38:04;;;;;;;;;26.33;24.67;;;;;12.10;61.89;103243.31;4997310;28;47312;-67
2021/12/16 09:40:35;;;;;;;;;28.33;26.33;;;;;12.27;61.78;103264.50;4997339;28;45271;-69
2021/12/16 09:43:02;;;;;;;;;21.67;20.33;;;;;12.35;61.20;103278.22;4999077;28;45575;-68
2021/12/16 09:45:28;;;;;;;;;24.33;22.00;;;;;11.86;61.02;103189.69;4998434;28;45561;-66
2021/12/16 09:47:54;;;;;;;;;22.00;19.67;;;;;12.03;60.74;103226.00;4997010;28;46350;-65
2021/12/16 09:50:24;;;;;;;;;24.33;21.67;;;;;12.35;61.43;103288.03;4998393;28;45278;-69
2021/12/16 09:52:50;;;;;;;;;25.33;23.33;;;;;12.43;61.26;103291.94;4979200;28;45350;-68
2021/12/16 09:55:16;;;;;;;;;26.33;23.00;;;;;12.39;60.89;103277.06;4977498;28;45651;-70
2021/12/16 09:57:41;;;;;;;;;27.00;22.67;;;;;12.41;61.22;103287.63;4978855;28;46467;-67
2021/12/16 10:00:10;;;;;;;;;20.33;18.33;;;;;12.35;60.85;103299.53;4981122;28;46060;-68
2021/12/16 10:02:36;;;;;;;;;25.00;22.33;;;;;12.37;61.42;103297.63;4981805;28;45622;-68
2021/12/16 10:05:04;;;;;;;;;24.33;24.00;;;;;12.34;61.70;103297.84;4979138;28;45458;-68
2021/12/16 10:07:33;;;;;;;;;34.67;30.00;;;;;12.13;62.25;103267.13;4999064;28;46420;-67
2021/12/16 10:10:01;;;;;;;;;31.67;29.67;;;;;12.07;62.39;103251.50;4996457;28;45547;-69
2021/12/16 10:12:32;;;;;;;;;35.67;31.00;;;;;12.25;63.14;103269.06;4998039;28;45405;-67
2021/12/16 10:17:30;;;;;;;;;29.67;27.33;;;;;12.24;62.21;103275.34;4996910;28;45698;-68
2021/12/16 10:20:01;;;;;;;;;33.33;31.00;;;;;12.19;61.95;103264.06;4998348;28;45475;-67
2021/12/16 10:22:38;;;;;;;;;27.67;25.33;;;;;12.40;61.87;103305.44;4997063;28;45318;-67
2021/12/16 10:25:25;;;;;;;;;31.67;27.67;;;;;12.35;62.63;103283.53;4998432;28;45271;-68
2021/12/16 10:28:02;;;;;;;;;27.33;26.00;;;;;12.53;62.05;103296.72;4997897;28;46510;-68
2021/12/16 10:30:49;;;;;;;;;28.67;27.67;;;;;12.54;62.01;103295.75;4998269;28;45297;-66
2021/12/16 10:33:38;;;;;;;;;29.67;27.00;;;;;12.44;62.10;103284.81;4989427;28;45539;-68
2021/12/16 10:36:20;;;;;;;;;28.00;26.00;;;;;12.52;62.04;103300.34;4997873;28;45542;-68
2021/12/16 10:38:51;;;;;;;;;30.67;29.67;;;;;12.29;61.80;103245.72;4996438;28;48442;-67
2021/12/16 10:41:23;;;;;;;;;31.33;25.67;;;;;12.40;61.46;103270.78;4996909;28;45431;-67
2021/12/16 10:44:16;;;;;;;;;21.00;17.33;;;;;12.53;61.29;103296.72;4978380;28;45331;-68
2021/12/16 10:46:46;;;;;;;;;27.00;25.67;;;;;12.58;61.33;103298.13;4986810;28;45588;-69
2021/12/16 10:49:19;;;;;;;;;30.67;27.33;;;;;12.33;60.52;103258.78;4995365;28;47745;-68
2021/12/16 10:51:46;;;;;;;;;28.67;27.00;;;;;12.47;61.10;103298.81;4997361;28;45613;-69
2021/12/16 10:54:14;;;;;;;;;29.00;26.67;;;;;12.48;61.33;103295.19;4997799;28;45553;-67
2021/12/16 10:56:42;;;;;;;;;28.67;25.00;;;;;12.41;61.23;103288.53;4996084;28;45595;-68
2021/12/16 10:59:10;;;;;;;;;31.67;29.33;;;;;11.99;60.76;103213.75;4997644;28;46674;-68
2021/12/16 11:01:38;;;;;;;;;41.00;33.00;;;;;12.47;61.24;103297.97;4993028;28;45537;-68
2021/12/16 11:04:08;;;;;;;;;34.00;31.00;;;;;12.48;61.16;103281.84;4997519;28;45532;-68
2021/12/16 11:06:40;;;;;;;;;28.33;27.33;;;;;12.35;61.18;103259.53;4996335;28;45700;-68
2021/12/16 11:09:36;;;;;;;;;34.67;31.33;;;;;12.61;61.12;103294.41;4997125;28;45777;-67
2021/12/16 11:12:24;;;;;;;;;34.00;30.00;;;;;12.54;61.44;103283.28;4996958;28;45333;-68
2021/12/16 11:14:59;;;;;;;;;36.00;30.33;;;;;12.63;61.23;103305.88;4994162;28;45499;-69
2021/12/16 11:17:30;;;;;;;;;36.33;28.67;;;;;12.67;60.88;103292.25;4996978;28;45546;-71
2021/12/16 11:20:03;;;;;;;;;35.33;32.00;;;;;12.34;60.62;103236.47;4996087;28;46596;-68
2021/12/16 11:22:34;;;;;;;;;32.00;30.00;;;;;12.69;60.80;103293.00;4996350;28;45498;-68
2021/12/16 11:25:37;;;;;;;;;34.67;30.67;;;;;12.78;60.78;103289.75;4996538;28;45532;-68
2021/12/16 11:28:20;;;;;;;;;38.00;32.00;;;;;12.65;59.88;103295.97;4996931;28;45266;-69
2021/12/16 11:30:59;;;;;;;;;34.33;30.33;;;;;12.58;60.63;103286.59;4993498;28;47825;-67
2021/12/16 11:33:26;;;;;;;;;35.00;31.00;;;;;12.60;61.05;103301.56;4995708;28;45297;-67
2021/12/16 11:36:02;;;;;;;;;34.33;29.67;;;;;12.65;60.13;103293.28;4996904;28;45393;-68
2021/12/16 11:38:39;;;;;;;;;29.67;29.67;;;;;12.69;60.40;103297.47;4995320;28;45635;-69
2021/12/16 11:41:07;;;;;;;;;35.33;33.00;;;;;12.63;60.54;103276.53;4996704;28;46590;-67
2021/12/16 11:43:35;;;;;;;;;36.67;30.33;;;;;12.66;60.71;103276.31;4996801;28;45325;-67
2021/12/16 11:46:04;;;;;;;;;40.00;33.00;;;;;12.63;60.31;103277.38;4996646;28;45369;-68
2021/12/16 11:48:38;;;;;;;;;37.33;31.33;;;;;12.62;60.78;103293.50;4996345;28;45329;-68
2021/12/16 11:51:35;;;;;;;;;33.00;30.33;;;;;12.47;61.25;103282.81;4996037;28;46624;-68
2021/12/16 11:54:14;;;;;;;;;35.67;32.67;;;;;12.48;60.58;103284.50;4995574;28;45485;-69
2021/12/16 11:56:44;;;;;;;;;34.33;29.67;;;;;12.52;60.57;103273.66;4996277;28;45398;-68
2021/12/16 11:59:11;;;;;;;;;30.00;29.00;;;;;12.47;60.87;103266.78;4991785;28;45399;-67
2021/12/16 12:01:40;;;;;;;;;35.00;32.00;;;;;12.34;61.08;103238.28;4984355;28;46825;-68
2021/12/16 12:04:09;;;;;;;;;35.00;31.33;;;;;12.57;61.24;103288.41;4996527;28;45639;-68
2021/12/16 12:06:36;;;;;;;;;35.33;31.67;;;;;12.62;60.91;103269.47;4996397;28;45511;-70
2021/12/16 12:09:06;;;;;;;;;34.33;32.33;;;;;12.74;60.50;103284.69;4996132;28;45227;-68
2021/12/16 12:11:35;;;;;;;;;34.67;32.33;;;;;12.64;60.07;103262.22;4995880;28;47682;-67
2021/12/16 12:14:07;;;;;;;;;30.00;28.33;;;;;12.57;60.29;103266.22;4996364;28;45283;-68
2021/12/16 12:16:39;;;;;;;;;30.33;27.33;;;;;12.37;60.77;103257.63;4996263;28;45565;-69
2021/12/16 12:19:08;;;;;;;;;34.00;29.67;;;;;12.48;61.34;103279.19;4996793;28;45640;-66
2021/12/16 12:21:43;;;;;;;;;31.00;30.00;;;;;12.45;61.60;103278.50;4995100;28;45525;-65
2021/12/16 12:24:11;;;;;;;;;38.00;33.00;;;;;12.40;61.79;103275.25;4993278;28;45785;-67
2021/12/16 12:26:55;;;;;;;;;38.00;31.33;;;;;12.35;61.76;103275.53;4994582;28;45547;-67
2021/12/16 12:29:28;;;;;;;;;41.67;34.00;;;;;12.10;61.56;103224.66;4996507;28;45644;-66
2021/12/16 12:32:18;;;;;;;;;38.67;32.67;;;;;12.38;61.72;103267.34;4992766;28;47891;-67
2021/12/16 12:34:47;;;;;;;;;34.33;31.67;;;;;12.33;60.99;103264.09;4995939;28;45435;-67
2021/12/16 12:37:18;;;;;;;;;38.33;32.00;;;;;12.41;61.21;103259.19;4994586;28;45622;-65
2021/12/16 12:40:03;;;;;;;;;36.33;30.33;;;;;12.37;61.10;103249.63;4994647;28;45828;-67
2021/12/16 12:42:29;;;;;;;;;37.33;33.00;;;;;12.43;60.66;103243.94;4996071;28;47090;-67
2021/12/16 12:44:55;;;;;;;;;35.33;31.33;;;;;12.66;61.05;103266.50;4991390;28;45649;-66
2021/12/16 12:47:28;;;;;;;;;34.00;31.33;;;;;12.68;60.88;103269.06;4994561;28;45574;-65
2021/12/16 12:50:08;;;;;;;;;38.33;32.00;;;;;12.68;60.21;103253.91;4987057;28;45443;-67
2021/12/16 12:52:35;;;;;;;;;33.33;30.67;;;;;12.68;60.17;103256.59;4995938;28;46954;-66
2021/12/16 12:55:11;;;;;;;;;33.33;28.33;;;;;12.79;59.71;103250.56;4995888;28;45344;-69
2021/12/16 12:57:42;;;;;;;;;30.33;29.00;;;;;12.83;59.83;103252.09;4996009;28;45331;-67
2021/12/16 13:00:25;;;;;;;;;35.67;31.67;;;;;12.86;58.56;103253.72;4996138;28;45312;-67
2021/12/16 13:03:00;;;;;;;;;29.00;28.33;;;;;12.70;58.70;103248.50;4976671;28;48269;-65
2021/12/16 13:05:26;;;;;;;;;39.00;31.00;;;;;12.66;58.91;103246.97;4980695;28;45632;-66
2021/12/16 13:08:02;;;;;;;;;19.67;19.67;;;;;12.54;59.40;103245.91;4981636;28;45547;-67
2021/12/16 13:10:35;;;;;;;;;25.33;24.67;;;;;12.12;59.33;103170.28;4983720;28;45518;-66
2021/12/16 13:13:31;;;;;;;;;30.00;25.00;;;;;12.73;59.92;103251.81;4993533;28;46604;-66
2021/12/16 13:27:45;;;;;;;;;34.33;30.00;;;;;12.69;59.45;103228.09;4985537;28;45393;-66
2021/12/16 13:32:46;;;;;;;;;27.00;24.00;;;;;12.78;59.24;103238.16;4989972;28;45480;-66
2021/12/16 13:37:49;;;;;;;;;32.67;31.00;;;;;12.51;59.42;103202.56;4994766;28;46747;-67
2021/12/16 13:40:14;;;;;;;;;35.33;31.00;;;;;12.78;59.34;103230.16;4993816;28;45410;-66
2021/12/16 13:42:45;;;;;;;;;30.00;25.67;;;;;12.69;59.28;103212.06;4992418;28;45556;-67
2021/12/16 13:45:21;;;;;;;;;28.67;26.00;;;;;12.77;59.00;103225.78;4994219;28;46191;-66
2021/12/16 13:48:01;;;;;;;;;25.00;23.00;;;;;12.65;59.43;103221.25;4994446;28;45440;-66
2021/12/16 14:05:03;;;;;;;;;25.00;24.33;;;;;12.52;58.99;103217.63;4987254;28;45468;-67
2021/12/16 14:07:58;;;;;;;;;24.33;22.00;;;;;12.43;59.16;103221.72;4997741;28;46520;-66
2021/12/16 14:10:42;;;;;;;;;31.33;27.33;;;;;12.42;59.14;103222.69;4996791;28;45608;-66
2021/12/16 14:41:38;;;;;;;;;29.33;26.67;;;;;12.86;58.70;103214.53;4997524;28;45647;-66
2021/12/16 14:49:50;;;;;;;;;28.33;25.67;;;;;12.69;59.26;103236.09;4987948;28;45433;-68
2021/12/16 14:52:22;;;;;;;;;27.00;27.00;;;;;12.54;59.98;103221.03;4997633;28;45673;-66
2021/12/16 14:54:55;;;;;;;;;29.67;28.00;;;;;12.64;60.19;103241.72;4997464;28;45491;-68
2021/12/16 14:57:33;;;;;;;;;28.67;26.33;;;;;12.57;59.96;103242.19;4989188;28;45421;-66